createdAt,value
2019-03-03T00:00:44.869Z,2.02
2019-03-03T00:03:13.377Z,2.30
2019-03-03T00:05:41.481Z,2.02
2019-03-03T00:08:09.414Z,2.25
2019-03-03T00:10:37.454Z,1.90
2019-03-03T00:13:05.907Z,2.30
2019-03-03T00:15:34.049Z,1.90
2019-03-03T00:18:02.146Z,2.10
2019-03-03T00:20:30.562Z,2.37
2019-03-03T00:22:58.346Z,2.20
2019-03-03T00:25:26.330Z,2.17
2019-03-03T00:27:54.109Z,2.00
2019-03-03T00:30:22.686Z,1.72
2019-03-03T00:32:50.863Z,1.95
2019-03-03T00:35:19.055Z,2.00
2019-03-03T00:38:07.259Z,2.15
2019-03-03T00:40:57.793Z,2.10
2019-03-03T00:43:51.260Z,1.87
2019-03-03T00:46:36.173Z,2.20
2019-03-03T00:49:29.856Z,2.47
2019-03-03T00:52:20.196Z,1.80
2019-03-03T00:55:11.260Z,2.22
2019-03-03T00:58:17.316Z,2.00
2019-03-03T01:01:13.805Z,1.80
2019-03-03T01:03:51.146Z,1.85
2019-03-03T01:06:44.414Z,1.72
2019-03-03T01:09:39.493Z,2.20
2019-03-03T01:12:32.550Z,1.90
2019-03-03T01:15:32.018Z,1.40
2019-03-03T01:18:08.953Z,1.87
2019-03-03T01:21:00.250Z,1.80
2019-03-03T01:23:46.458Z,1.25
2019-03-03T01:26:14.521Z,2.20
2019-03-03T01:28:43.916Z,1.92
2019-03-03T01:31:12.382Z,1.50
2019-03-03T01:33:40.766Z,1.52
2019-03-03T01:36:09.044Z,1.77
2019-03-03T01:38:37.733Z,1.52
2019-03-03T01:41:06.383Z,1.82
2019-03-03T01:43:35.521Z,1.70
2019-03-03T01:46:03.926Z,1.82
2019-03-03T01:48:31.940Z,1.60
2019-03-03T01:50:59.849Z,1.50
2019-03-03T01:53:28.344Z,1.82
2019-03-03T01:55:56.357Z,1.55
2019-03-03T01:58:24.167Z,1.85
2019-03-03T02:00:51.978Z,1.77
2019-03-03T02:03:20.978Z,1.60
2019-03-03T02:05:51.133Z,1.50
2019-03-03T02:08:19.924Z,1.70
2019-03-03T02:10:48.317Z,1.50
2019-03-03T02:13:16.742Z,1.50
2019-03-03T02:15:45.429Z,1.70
2019-03-03T02:18:13.335Z,1.50
2019-03-03T02:20:40.956Z,1.50
2019-03-03T02:23:10.052Z,2.00
2019-03-03T02:25:37.969Z,1.42
2019-03-03T02:28:06.327Z,1.42
2019-03-03T02:30:35.501Z,1.52
2019-03-03T02:33:03.453Z,1.60
2019-03-03T02:35:31.109Z,1.55
2019-03-03T02:37:58.925Z,1.60
2019-03-03T02:40:26.785Z,1.70
2019-03-03T02:42:56.617Z,1.80
2019-03-03T02:45:43.455Z,1.77
2019-03-03T02:48:11.832Z,1.55
2019-03-03T02:50:39.672Z,1.60
2019-03-03T02:53:07.712Z,1.57
2019-03-03T02:55:35.413Z,1.40
2019-03-03T02:58:04.043Z,1.40
2019-03-03T03:00:32.545Z,1.80
2019-03-03T03:03:01.064Z,1.70
2019-03-03T03:05:48.197Z,1.72
2019-03-03T03:08:19.913Z,1.40
2019-03-03T03:11:16.789Z,1.72
2019-03-03T03:14:09.328Z,1.55
2019-03-03T03:16:58.905Z,1.37
2019-03-03T03:19:53.196Z,1.42
2019-03-03T03:22:46.446Z,1.60
2019-03-03T03:25:27.045Z,1.50
2019-03-03T03:28:18.516Z,1.45
2019-03-03T03:31:06.281Z,1.40
2019-03-03T03:34:00.231Z,1.40
2019-03-03T03:37:00.050Z,1.65
2019-03-03T03:39:46.227Z,1.57
2019-03-03T03:42:19.635Z,1.30
2019-03-03T03:45:06.153Z,1.50
2019-03-03T03:47:56.768Z,1.60
2019-03-03T03:50:37.056Z,1.77
2019-03-03T03:53:12.544Z,1.40
2019-03-03T03:56:08.356Z,1.32
2019-03-03T03:58:51.570Z,1.30
2019-03-03T04:01:42.309Z,1.55
2019-03-03T04:04:28.992Z,1.60
2019-03-03T04:07:08.104Z,1.75
2019-03-03T04:09:52.512Z,1.52
2019-03-03T04:12:31.972Z,1.65
2019-03-03T04:15:20.971Z,1.40
2019-03-03T04:18:11.486Z,1.80
2019-03-03T04:20:58.989Z,1.40
2019-03-03T04:24:01.673Z,1.70
2019-03-03T04:26:54.293Z,1.42
2019-03-03T04:29:33.226Z,1.52
2019-03-03T04:32:29.525Z,1.17
2019-03-03T04:35:11.332Z,1.60
2019-03-03T04:37:58.744Z,1.30
2019-03-03T04:40:35.311Z,1.50
2019-03-03T04:43:21.515Z,1.50
2019-03-03T04:46:11.099Z,1.75
2019-03-03T04:48:57.094Z,1.42
2019-03-03T04:51:43.904Z,1.70
2019-03-03T04:54:21.594Z,1.50
2019-03-03T04:57:18.340Z,1.40
2019-03-03T05:00:06.177Z,1.32
2019-03-03T05:03:02.918Z,1.52
2019-03-03T05:05:49.216Z,1.20
2019-03-03T05:08:36.945Z,1.40
2019-03-03T05:11:30.751Z,1.47
2019-03-03T05:14:06.708Z,1.57
2019-03-03T05:16:43.682Z,1.60
2019-03-03T05:19:24.210Z,1.47
2019-03-03T05:21:52.653Z,1.47
2019-03-03T05:24:21.177Z,1.52
2019-03-03T05:26:51.696Z,1.40
2019-03-03T05:29:20.170Z,1.50
2019-03-03T05:31:49.370Z,1.30
2019-03-03T05:34:19.470Z,1.35
2019-03-03T05:36:48.167Z,1.30
2019-03-03T05:39:16.851Z,1.30
2019-03-03T05:41:46.675Z,1.27
2019-03-03T05:44:14.571Z,1.37
2019-03-03T05:46:42.787Z,1.22
2019-03-03T05:49:11.942Z,1.40
2019-03-03T05:51:39.863Z,2.20
2019-03-03T05:54:08.342Z,1.35
2019-03-03T05:56:36.504Z,1.50
2019-03-03T05:59:05.525Z,1.35
2019-03-03T06:01:33.228Z,1.32
2019-03-03T06:04:01.745Z,1.42
2019-03-03T06:06:30.184Z,1.30
2019-03-03T06:08:57.948Z,1.40
2019-03-03T06:11:26.464Z,1.10
2019-03-03T06:13:55.362Z,1.45
2019-03-03T06:16:23.301Z,1.40
2019-03-03T06:18:51.259Z,1.40
2019-03-03T06:21:19.023Z,1.50
2019-03-03T06:23:46.722Z,1.22
2019-03-03T06:26:14.686Z,1.50
2019-03-03T06:28:43.363Z,1.60
2019-03-03T06:31:11.956Z,1.57
2019-03-03T06:33:39.978Z,1.40
2019-03-03T06:36:08.895Z,1.30
2019-03-03T06:38:36.843Z,1.50
2019-03-03T06:41:04.631Z,1.80
2019-03-03T06:43:33.207Z,1.30
2019-03-03T06:46:01.711Z,1.45
2019-03-03T06:48:31.047Z,1.40
2019-03-03T06:50:59.686Z,1.37
2019-03-03T06:53:28.152Z,1.50
2019-03-03T06:55:56.316Z,1.67
2019-03-03T06:58:25.149Z,1.50
2019-03-03T07:00:53.485Z,1.50
2019-03-03T07:03:21.202Z,1.35
2019-03-03T07:05:48.990Z,1.77
2019-03-03T07:08:17.589Z,1.40
2019-03-03T07:10:46.265Z,1.45
2019-03-03T07:13:15.234Z,1.42
2019-03-03T07:15:43.598Z,1.50
2019-03-03T07:18:11.537Z,1.60
2019-03-03T07:20:39.626Z,1.62
2019-03-03T07:23:07.794Z,1.30
2019-03-03T07:25:36.291Z,1.37
2019-03-03T07:28:03.992Z,1.30
2019-03-03T07:30:32.119Z,1.37
2019-03-03T07:33:18.479Z,1.85
2019-03-03T07:35:47.181Z,1.45
2019-03-03T07:38:15.733Z,1.52
2019-03-03T07:40:43.715Z,1.40
2019-03-03T07:43:11.696Z,1.30
2019-03-03T07:45:39.388Z,1.52
2019-03-03T07:48:08.472Z,1.70
2019-03-03T07:50:36.894Z,1.37
2019-03-03T07:53:04.686Z,1.70
2019-03-03T07:55:32.483Z,1.57
2019-03-03T07:58:00.886Z,2.08
2019-03-03T08:00:29.250Z,1.50
2019-03-03T08:02:57.350Z,1.27
2019-03-03T08:05:25.938Z,1.57
2019-03-03T08:07:55.887Z,1.50
2019-03-03T08:10:24.237Z,1.60
2019-03-03T08:12:53.001Z,1.35
2019-03-03T08:15:20.878Z,1.30
2019-03-03T08:17:49.352Z,1.37
2019-03-03T08:20:17.921Z,1.70
2019-03-03T08:22:46.295Z,1.47
2019-03-03T08:25:14.132Z,1.40
2019-03-03T08:27:43.193Z,1.50
2019-03-03T08:30:11.057Z,1.70
2019-03-03T08:32:40.239Z,1.40
2019-03-03T08:35:10.927Z,1.52
2019-03-03T08:37:39.367Z,1.65
2019-03-03T08:40:08.504Z,1.77
2019-03-03T08:42:57.709Z,1.85
2019-03-03T08:45:47.145Z,1.60
2019-03-03T08:48:23.596Z,1.85
2019-03-03T08:50:55.346Z,1.95
2019-03-03T08:53:28.959Z,1.47
2019-03-03T08:56:16.107Z,1.90
2019-03-03T08:58:54.086Z,1.72
2019-03-03T09:01:29.935Z,1.77
2019-03-03T09:04:08.041Z,1.87
2019-03-03T09:06:56.174Z,1.50
2019-03-03T09:09:49.816Z,1.52
2019-03-03T09:12:35.971Z,2.00
2019-03-03T09:15:26.266Z,1.70
2019-03-03T09:18:22.831Z,1.72
2019-03-03T09:21:00.645Z,1.72
2019-03-03T09:24:00.168Z,1.90
2019-03-03T09:26:42.496Z,2.12
2019-03-03T09:29:17.273Z,1.70
2019-03-03T09:32:13.776Z,1.72
2019-03-03T09:35:04.247Z,1.47
2019-03-03T09:37:39.560Z,2.00
2019-03-03T09:40:30.897Z,1.82
2019-03-03T09:43:13.426Z,1.90
2019-03-03T09:46:08.269Z,1.57
2019-03-03T09:48:58.903Z,1.80
2019-03-03T09:51:45.905Z,1.98
2019-03-03T09:54:24.885Z,2.08
2019-03-03T09:57:11.580Z,2.20
2019-03-03T09:59:55.967Z,2.30
2019-03-03T10:02:36.966Z,1.90
2019-03-03T10:05:28.102Z,1.77
2019-03-03T10:08:18.631Z,2.35
2019-03-03T10:11:08.927Z,2.10
2019-03-03T10:13:59.823Z,2.47
2019-03-03T10:16:47.260Z,2.15
2019-03-03T10:19:35.637Z,2.62
2019-03-03T10:22:21.933Z,2.20
2019-03-03T10:24:56.854Z,2.33
2019-03-03T10:27:47.590Z,2.12
2019-03-03T10:30:34.916Z,1.80
2019-03-03T10:33:11.499Z,2.62
2019-03-03T10:36:14.568Z,2.47
2019-03-03T10:39:05.233Z,2.17
2019-03-03T10:42:05.483Z,2.35
2019-03-03T10:44:52.569Z,2.60
2019-03-03T10:47:41.375Z,2.20
2019-03-03T10:50:29.543Z,2.50
2019-03-03T10:53:15.698Z,2.30
2019-03-03T10:56:02.014Z,3.00
2019-03-03T10:58:48.971Z,2.70
2019-03-03T11:01:32.346Z,5.10
2019-03-03T11:04:13.512Z,3.47
2019-03-03T11:07:01.903Z,4.53
2019-03-03T11:09:37.987Z,4.85
2019-03-03T11:12:16.475Z,6.17
2019-03-03T11:15:06.735Z,7.53
2019-03-03T11:17:55.141Z,8.75
2019-03-03T11:20:52.190Z,10.58
2019-03-03T11:23:41.555Z,11.10
2019-03-03T11:26:27.764Z,15.40
2019-03-03T11:29:15.763Z,16.50
2019-03-03T11:32:09.123Z,15.87
2019-03-03T11:35:02.783Z,15.80
2019-03-03T11:37:55.998Z,15.58
2019-03-03T11:40:42.025Z,15.72
2019-03-03T11:43:23.220Z,16.27
2019-03-03T11:46:11.267Z,15.65
2019-03-03T11:48:49.794Z,16.35
2019-03-03T11:51:45.919Z,17.60
2019-03-03T11:54:21.975Z,20.62
2019-03-03T11:57:03.847Z,17.82
2019-03-03T11:59:50.015Z,19.05
2019-03-03T12:02:56.408Z,17.55
2019-03-03T12:05:56.949Z,17.05
2019-03-03T12:08:43.124Z,18.57
2019-03-03T12:11:43.006Z,20.20
2019-03-03T12:14:38.312Z,17.67
2019-03-03T12:17:24.617Z,15.68
2019-03-03T12:20:02.865Z,18.25
2019-03-03T12:22:40.233Z,18.23
2019-03-03T12:25:28.376Z,18.17
2019-03-03T12:28:19.007Z,16.77
2019-03-03T12:31:19.009Z,14.87
2019-03-03T12:34:18.494Z,18.42
2019-03-03T12:37:14.543Z,18.40
2019-03-03T12:40:05.246Z,16.67
2019-03-03T12:42:41.895Z,14.68
2019-03-03T12:45:17.717Z,14.53
2019-03-03T12:48:03.164Z,17.27
2019-03-03T12:50:50.795Z,17.12
2019-03-03T12:53:33.391Z,16.67
2019-03-03T12:56:24.383Z,16.85
2019-03-03T12:59:14.943Z,17.70
2019-03-03T13:02:08.652Z,18.07
2019-03-03T13:05:11.675Z,16.82
2019-03-03T13:07:57.960Z,16.10
2019-03-03T13:11:00.276Z,15.03
2019-03-03T13:13:47.812Z,15.63
2019-03-03T13:16:34.622Z,16.27
2019-03-03T13:19:24.949Z,16.02
2019-03-03T13:22:08.279Z,16.45
2019-03-03T13:24:54.642Z,15.23
2019-03-03T13:27:54.014Z,16.97
2019-03-03T13:30:44.578Z,17.17
2019-03-03T13:33:35.775Z,15.25
2019-03-03T13:36:22.652Z,11.85
2019-03-03T13:39:13.674Z,12.07
2019-03-03T13:41:59.675Z,12.88
2019-03-03T13:44:27.583Z,12.23
2019-03-03T13:46:55.299Z,13.48
2019-03-03T13:49:23.883Z,13.10
2019-03-03T13:51:51.579Z,12.85
2019-03-03T13:54:19.445Z,12.43
2019-03-03T13:56:47.193Z,10.85
2019-03-03T13:59:15.021Z,10.72
2019-03-03T14:01:43.512Z,11.03
2019-03-03T14:04:14.058Z,11.40
2019-03-03T14:06:42.128Z,10.68
2019-03-03T14:09:10.022Z,10.70
2019-03-03T14:11:37.856Z,10.90
2019-03-03T14:14:05.719Z,11.33
2019-03-03T14:16:33.377Z,11.65
2019-03-03T14:19:01.773Z,11.20
2019-03-03T14:21:32.361Z,12.50
2019-03-03T14:24:01.373Z,11.20
2019-03-03T14:26:29.732Z,12.37
2019-03-03T14:28:58.750Z,12.05
2019-03-03T14:31:29.139Z,10.88
2019-03-03T14:33:56.954Z,10.80
2019-03-03T14:36:24.633Z,10.75
2019-03-03T14:38:52.799Z,10.23
2019-03-03T14:41:20.772Z,10.32
2019-03-03T14:43:48.402Z,9.00
2019-03-03T14:46:16.207Z,10.75
2019-03-03T14:48:44.060Z,10.53
2019-03-03T14:51:11.792Z,10.18
2019-03-03T14:53:40.033Z,10.15
2019-03-03T14:56:08.479Z,9.75
2019-03-03T14:58:36.785Z,9.85
2019-03-03T15:01:04.713Z,10.63
2019-03-03T15:03:33.029Z,10.58
2019-03-03T15:06:01.545Z,10.08
2019-03-03T15:08:29.984Z,9.88
2019-03-03T15:10:57.945Z,10.20
2019-03-03T15:13:26.822Z,9.95
2019-03-03T15:15:54.982Z,8.40
2019-03-03T15:18:23.517Z,9.45
2019-03-03T15:20:51.805Z,9.48
2019-03-03T15:23:19.617Z,8.50
2019-03-03T15:25:47.898Z,8.35
2019-03-03T15:28:15.599Z,8.55
2019-03-03T15:30:43.497Z,8.95
2019-03-03T15:33:11.626Z,8.03
2019-03-03T15:35:39.566Z,8.35
2019-03-03T15:38:08.247Z,8.63
2019-03-03T15:40:36.679Z,8.83
2019-03-03T15:43:04.839Z,8.65
2019-03-03T15:45:32.916Z,7.87
2019-03-03T15:48:00.865Z,7.85
2019-03-03T15:50:28.904Z,7.83
2019-03-03T15:52:57.372Z,7.75
2019-03-03T15:55:25.137Z,7.85
2019-03-03T15:57:52.888Z,7.87
2019-03-03T16:00:24.181Z,7.05
2019-03-03T16:02:52.221Z,7.05
2019-03-03T16:05:21.653Z,7.78
2019-03-03T16:07:50.189Z,7.22
2019-03-03T16:10:18.377Z,6.87
2019-03-03T16:12:47.087Z,6.80
2019-03-03T16:15:14.697Z,7.83
2019-03-03T16:17:43.091Z,7.72
2019-03-03T16:20:13.724Z,6.65
2019-03-03T16:22:41.999Z,7.65
2019-03-03T16:25:11.308Z,7.35
2019-03-03T16:27:40.030Z,7.22
2019-03-03T16:30:13.478Z,7.10
2019-03-03T16:32:41.308Z,7.10
2019-03-03T16:35:09.329Z,6.42
2019-03-03T16:37:37.447Z,6.33
2019-03-03T16:40:08.079Z,6.35
2019-03-03T16:42:36.183Z,6.12
2019-03-03T16:45:04.787Z,5.70
2019-03-03T16:47:33.035Z,5.70
2019-03-03T16:50:01.210Z,6.53
2019-03-03T16:52:29.588Z,5.97
2019-03-03T16:54:57.308Z,6.05
2019-03-03T16:57:25.561Z,6.33
2019-03-03T16:59:53.721Z,6.37
2019-03-03T17:02:21.449Z,5.28
2019-03-03T17:04:51.885Z,5.95
2019-03-03T17:07:19.653Z,5.90
2019-03-03T17:09:47.346Z,5.17
2019-03-03T17:12:15.450Z,5.55
2019-03-03T17:14:43.255Z,5.67
2019-03-03T17:17:11.016Z,5.83
2019-03-03T17:19:39.071Z,5.55
2019-03-03T17:22:06.818Z,5.10
2019-03-03T17:24:34.802Z,4.92
2019-03-03T17:27:03.231Z,4.90
2019-03-03T17:29:31.236Z,4.42
2019-03-03T17:32:01.257Z,5.92
2019-03-03T17:34:29.321Z,4.83
2019-03-03T17:36:57.264Z,5.33
2019-03-03T17:39:25.386Z,4.87
2019-03-03T17:41:53.509Z,5.33
2019-03-03T17:44:21.560Z,5.17
2019-03-03T17:46:49.614Z,5.10
2019-03-03T17:49:17.517Z,5.12
2019-03-03T17:51:45.785Z,5.35
2019-03-03T17:54:14.649Z,4.60
2019-03-03T17:56:43.382Z,4.83
2019-03-03T17:59:11.565Z,4.67
2019-03-03T18:01:39.713Z,4.33
2019-03-03T18:04:07.426Z,4.40
2019-03-03T18:06:38.824Z,4.50
2019-03-03T18:09:06.410Z,4.00
2019-03-03T18:11:34.671Z,4.58
2019-03-03T18:14:02.703Z,4.60
2019-03-03T18:16:30.826Z,4.55
2019-03-03T18:18:58.855Z,3.83
2019-03-03T18:21:26.563Z,4.80
2019-03-03T18:23:55.018Z,4.75
2019-03-03T18:26:23.147Z,4.12
2019-03-03T18:28:51.368Z,4.45
2019-03-03T18:31:19.526Z,4.45
2019-03-03T18:33:48.162Z,4.58
2019-03-03T18:36:16.187Z,4.83
2019-03-03T18:38:44.331Z,4.28
2019-03-03T18:41:12.953Z,4.65
2019-03-03T18:43:41.031Z,4.35
2019-03-03T18:46:09.385Z,3.95
2019-03-03T18:48:37.818Z,4.20
2019-03-03T18:51:06.725Z,4.55
2019-03-03T18:53:34.765Z,4.50
2019-03-03T18:56:02.873Z,4.17
2019-03-03T18:58:31.862Z,4.75
2019-03-03T19:00:59.984Z,4.58
2019-03-03T19:03:28.008Z,4.83
2019-03-03T19:05:56.247Z,5.00
2019-03-03T19:08:24.814Z,4.58
2019-03-03T19:10:54.376Z,4.25
2019-03-03T19:13:22.900Z,4.65
2019-03-03T19:15:50.971Z,4.45
2019-03-03T19:18:19.199Z,3.95
2019-03-03T19:20:47.067Z,4.50
2019-03-03T19:23:14.974Z,4.75
2019-03-03T19:25:43.150Z,4.37
2019-03-03T19:28:11.685Z,4.22
2019-03-03T19:30:40.520Z,4.60
2019-03-03T19:33:20.041Z,3.80
2019-03-03T19:35:47.853Z,3.98
2019-03-03T19:38:15.945Z,4.40
2019-03-03T19:40:44.898Z,4.33
2019-03-03T19:43:13.037Z,4.28
2019-03-03T19:45:41.169Z,3.65
2019-03-03T19:48:10.398Z,4.55
2019-03-03T19:50:39.466Z,4.55
2019-03-03T19:53:07.777Z,4.03
2019-03-03T19:55:37.691Z,4.15
2019-03-03T19:58:06.048Z,3.90
2019-03-03T20:00:38.544Z,4.30
2019-03-03T20:03:05.257Z,4.05
2019-03-03T20:05:33.787Z,4.22
2019-03-03T20:08:01.984Z,4.65
2019-03-03T20:10:29.891Z,3.70
2019-03-03T20:12:57.834Z,5.60
2019-03-03T20:15:25.729Z,5.60
2019-03-03T20:17:54.701Z,5.60
2019-03-03T20:20:22.953Z,6.47
2019-03-03T20:22:51.352Z,6.90
2019-03-03T20:25:19.174Z,7.55
2019-03-03T20:27:47.052Z,6.83
2019-03-03T20:30:17.020Z,9.48
2019-03-03T20:32:45.533Z,9.35
2019-03-03T20:35:13.957Z,7.75
2019-03-03T20:37:42.070Z,9.90
2019-03-03T20:40:12.346Z,10.88
2019-03-03T20:42:40.313Z,10.13
2019-03-03T20:45:11.966Z,10.63
2019-03-03T20:47:40.109Z,9.55
2019-03-03T20:50:11.550Z,12.40
2019-03-03T20:52:39.526Z,11.08
2019-03-03T20:55:11.906Z,11.28
2019-03-03T20:57:41.530Z,13.08
2019-03-03T21:00:14.370Z,14.43
2019-03-03T21:02:42.391Z,15.10
2019-03-03T21:05:12.279Z,14.58
2019-03-03T21:07:50.581Z,15.00
2019-03-03T21:10:14.859Z,13.65
2019-03-03T21:12:43.377Z,14.78
2019-03-03T21:15:13.182Z,11.10
2019-03-03T21:17:42.900Z,12.30
2019-03-03T21:20:16.133Z,10.82
2019-03-03T21:22:46.049Z,10.78
2019-03-03T21:25:15.056Z,10.35
2019-03-03T21:27:43.976Z,10.40
2019-03-03T21:30:18.835Z,11.22
2019-03-03T21:32:47.610Z,11.38
2019-03-03T21:35:20.602Z,9.78
2019-03-03T21:37:50.953Z,10.23
2019-03-03T21:40:19.446Z,10.08
2019-03-03T21:42:49.521Z,11.53
2019-03-03T21:45:21.330Z,10.35
2019-03-03T21:47:51.322Z,9.13
2019-03-03T21:50:21.886Z,8.88
2019-03-03T21:52:51.382Z,9.20
2019-03-03T21:55:20.593Z,8.13
2019-03-03T21:57:50.560Z,8.15
2019-03-03T22:00:25.720Z,6.85
2019-03-03T22:02:55.259Z,8.45
2019-03-03T22:05:26.533Z,7.85
2019-03-03T22:07:56.446Z,8.00
2019-03-03T22:10:32.217Z,8.03
2019-03-03T22:13:03.947Z,8.38
2019-03-03T22:15:33.099Z,8.43
2019-03-03T22:18:02.686Z,8.28
2019-03-03T22:20:31.110Z,7.08
2019-03-03T22:23:01.472Z,7.10
2019-03-03T22:25:30.755Z,6.20
2019-03-03T22:28:00.550Z,6.58
2019-03-03T22:30:29.393Z,7.15
2019-03-03T22:32:57.605Z,6.20
2019-03-03T22:35:25.914Z,7.05
2019-03-03T22:37:54.256Z,6.15
2019-03-03T22:40:22.229Z,6.25
2019-03-03T22:42:50.394Z,7.45
2019-03-03T22:45:19.913Z,7.58
2019-03-03T22:47:49.779Z,7.00
2019-03-03T22:50:18.133Z,6.80
2019-03-03T22:52:46.893Z,6.42
2019-03-03T22:55:16.582Z,5.83
2019-03-03T22:57:44.394Z,6.92
2019-03-03T23:00:42.500Z,6.30
2019-03-03T23:03:15.048Z,6.35
2019-03-03T23:06:05.144Z,5.97
2019-03-03T23:08:58.067Z,5.53
2019-03-03T23:12:05.149Z,5.72
2019-03-03T23:14:44.687Z,5.22
2019-03-03T23:18:14.638Z,5.22
2019-03-03T23:21:14.414Z,5.85
2019-03-03T23:24:43.593Z,5.53
2019-03-03T23:27:11.647Z,5.37
2019-03-03T23:29:39.823Z,5.53
2019-03-03T23:32:07.890Z,5.72
2019-03-03T23:34:38.062Z,5.17
2019-03-03T23:37:07.155Z,5.65
2019-03-03T23:39:35.131Z,5.47
2019-03-03T23:42:02.978Z,5.30
2019-03-03T23:44:30.646Z,5.00
2019-03-03T23:46:58.635Z,4.47
2019-03-03T23:49:26.315Z,5.35
2019-03-03T23:51:54.379Z,4.83
2019-03-03T23:54:22.483Z,4.87
2019-03-03T23:56:50.230Z,4.67
2019-03-03T23:59:18.548Z,4.50
